Time;durP1;ratioP1;P1;durP2;ratioP2;P2;SDS_P1;SDS_P2;PMS_P1;PMS_P2;Temp;Humidity;BMP_temperature;BMP_pressure;BME280_temperature;BME280_humidity;BME280_pressure;Samples;Min_cycle;Max_cycle;Signal;HPM_P1;HPM_P2
2024/03/11 00:01:04;;;;;;;49.03;39.30;;;12.50;99.90;;;12.91;75.78;99687.38;5050749;28;20037;-69
2024/03/11 00:03:34;;;;;;;52.72;39.70;;;12.50;99.90;;;12.90;75.73;99697.13;5050555;28;20056;-69
2024/03/11 00:06:03;;;;;;;52.20;39.60;;;12.50;99.90;;;12.81;75.99;99705.38;5050643;28;20468;-69
2024/03/11 00:08:33;;;;;;;51.35;39.80;;;12.50;99.90;;;12.75;76.76;99710.88;5050614;28;20543;-69
2024/03/11 00:11:04;;;;;;;51.30;38.90;;;12.40;99.90;;;12.76;76.67;99709.97;5050653;28;20532;-69
2024/03/11 00:13:34;;;;;;;52.83;40.42;;;12.40;99.90;;;12.69;76.70;99703.13;5032772;28;20043;-70
2024/03/11 00:16:06;;;;;;;48.70;38.97;;;12.40;99.90;;;12.73;76.78;99702.09;5050578;28;20041;-69
2024/03/11 00:18:35;;;;;;;49.63;38.53;;;12.30;99.90;;;12.74;76.85;99705.63;5050524;28;20036;-69
2024/03/11 00:21:04;;;;;;;52.17;40.42;;;12.40;99.90;;;12.79;76.71;99711.66;5051133;28;20428;-69
2024/03/11 00:23:33;;;;;;;50.95;38.78;;;12.50;99.90;;;12.67;76.79;99710.25;5054559;28;20051;-69
2024/03/11 00:26:02;;;;;;;51.03;39.97;;;12.40;99.90;;;12.73;77.04;99714.50;5054789;28;20055;-69
2024/03/11 00:28:33;;;;;;;52.00;40.30;;;12.40;99.90;;;12.55;77.04;99678.81;5036563;28;20045;-69
2024/03/11 00:31:03;;;;;;;50.25;39.08;;;12.40;99.90;;;12.69;77.48;99734.97;5054806;28;20048;-68
2024/03/11 00:33:31;;;;;;;54.40;41.55;;;12.40;99.90;;;12.73;77.38;99717.16;5054431;28;20390;-67
2024/03/11 00:36:00;;;;;;;51.17;38.80;;;12.40;99.90;;;12.70;77.23;99708.38;5054675;28;20040;-67
2024/03/11 00:38:29;;;;;;;53.80;40.80;;;12.40;99.90;;;12.73;77.36;99704.75;5054469;28;20048;-68
2024/03/11 00:40:57;;;;;;;53.35;40.22;;;12.40;99.90;;;12.73;77.53;99710.06;5054360;28;20059;-67
2024/03/11 00:43:27;;;;;;;50.60;39.90;;;12.40;99.90;;;12.69;77.67;99713.72;5054323;28;20193;-68
2024/03/11 00:45:55;;;;;;;50.15;38.53;;;12.30;99.90;;;12.68;77.54;99707.53;5054125;28;20051;-67
2024/03/11 00:48:25;;;;;;;49.72;38.45;;;12.30;99.90;;;12.66;77.65;99711.16;5054162;28;20444;-67
2024/03/11 00:50:56;;;;;;;53.85;39.75;;;12.30;99.90;;;12.67;77.70;99708.47;5054147;28;20029;-68
2024/03/11 00:53:25;;;;;;;50.03;38.53;;;12.20;99.90;;;12.47;77.68;99676.41;5054029;28;20056;-67
2024/03/11 00:55:54;;;;;;;51.83;39.47;;;12.20;99.90;;;12.62;77.69;99709.50;5054184;28;20095;-67
2024/03/11 00:58:24;;;;;;;52.53;40.47;;;12.20;99.90;;;12.76;77.55;99731.19;5054091;28;20102;-67
2024/03/11 01:00:53;;;;;;;51.80;39.67;;;12.40;99.90;;;12.73;77.34;99733.94;5054282;28;20045;-67
2024/03/11 01:03:22;;;;;;;52.67;39.78;;;12.30;99.90;;;12.47;77.14;99680.81;5053806;28;20086;-68
2024/03/11 01:05:53;;;;;;;52.75;39.58;;;12.40;99.90;;;12.72;77.42;99729.53;5053836;28;20072;-67
2024/03/11 01:08:22;;;;;;;57.08;40.88;;;12.30;99.90;;;12.76;77.45;99728.53;5053803;28;20128;-67
2024/03/11 01:10:51;;;;;;;49.88;39.03;;;12.40;99.90;;;12.80;77.27;99732.81;5053863;28;20114;-67
2024/03/11 01:13:19;;;;;;;50.20;39.92;;;12.40;99.90;;;12.82;77.20;99757.53;5053586;28;20040;-67
2024/03/11 01:15:48;;;;;;;48.75;37.72;;;12.50;99.90;;;12.63;77.43;99706.84;5035757;28;20052;-67
2024/03/11 01:18:17;;;;;;;47.15;36.53;;;12.40;99.90;;;12.54;78.35;99700.97;5053864;28;20037;-67
2024/03/11 01:20:46;;;;;;;51.72;39.25;;;12.30;99.90;;;12.64;78.49;99726.25;5053651;28;20079;-67
2024/03/11 01:23:17;;;;;;;52.15;39.00;;;12.20;99.90;;;12.64;78.55;99727.13;5053822;28;20523;-67
2024/03/11 01:25:46;;;;;;;53.15;41.33;;;12.30;99.90;;;12.68;77.82;99727.91;5053614;28;20119;-68
2024/03/11 01:28:14;;;;;;;53.10;40.72;;;12.30;99.90;;;12.67;77.78;99716.44;5053342;28;20551;-67
2024/03/11 01:30:43;;;;;;;53.50;39.88;;;12.30;99.90;;;12.64;77.56;99721.81;5053772;28;20036;-67
2024/03/11 01:33:12;;;;;;;50.80;40.33;;;12.20;99.90;;;12.24;77.91;99659.44;5053259;28;20056;-67
2024/03/11 01:35:41;;;;;;;53.40;39.70;;;12.20;99.90;;;12.54;78.22;99716.88;5053490;28;20554;-68
2024/03/11 01:38:10;;;;;;;48.88;37.10;;;12.10;99.90;;;12.55;78.38;99719.47;5053639;28;20060;-67
2024/03/11 01:40:41;;;;;;;49.60;38.47;;;12.10;99.90;;;12.48;79.13;99707.31;5053126;28;20041;-67
2024/03/11 01:43:10;;;;;;;50.47;39.00;;;12.10;99.90;;;12.50;79.09;99715.22;5052779;28;20567;-67
2024/03/11 01:45:39;;;;;;;50.88;39.58;;;12.00;99.90;;;12.50;79.22;99716.06;5052682;28;20420;-68
2024/03/11 01:48:09;;;;;;;51.85;39.95;;;12.00;99.90;;;12.56;78.88;99707.09;5052885;28;20059;-68
2024/03/11 01:50:38;;;;;;;57.10;40.75;;;12.10;99.90;;;12.53;78.84;99713.34;5053419;28;20767;-67
2024/03/11 01:53:07;;;;;;;55.38;39.50;;;12.10;99.90;;;12.54;78.87;99711.56;5034665;28;20625;-68
2024/03/11 01:55:37;;;;;;;53.00;39.85;;;12.10;99.90;;;12.42;78.86;99693.38;5052598;28;20124;-69
2024/03/11 01:58:09;;;;;;;54.13;40.17;;;12.10;99.90;;;12.43;79.00;99684.47;5052813;28;20037;-68
2024/03/11 02:00:40;;;;;;;54.00;41.22;;;12.10;99.90;;;12.53;78.91;99702.72;5052577;28;20052;-69
2024/03/11 02:03:08;;;;;;;56.75;41.33;;;12.10;99.90;;;12.48;79.07;99699.38;5052736;28;20087;-69
2024/03/11 02:05:40;;;;;;;56.92;40.40;;;12.10;99.90;;;12.46;78.99;99702.97;5034470;28;20091;-69
2024/03/11 02:08:10;;;;;;;52.97;40.05;;;12.00;99.90;;;12.46;79.18;99695.91;5052002;28;20041;-68
2024/03/11 02:10:39;;;;;;;52.60;41.08;;;12.00;99.90;;;12.49;79.41;99694.91;5052272;28;20156;-68
2024/03/11 02:13:09;;;;;;;52.35;40.22;;;12.00;99.90;;;12.44;79.21;99689.75;5034322;28;20072;-68
2024/03/11 02:15:37;;;;;;;51.85;39.90;;;12.00;99.90;;;12.45;79.20;99687.97;5052564;28;20045;-68
2024/03/11 02:18:06;;;;;;;54.60;40.70;;;12.00;99.90;;;12.48;79.24;99698.50;5034244;28;20036;-69
2024/03/11 02:20:40;;;;;;;53.22;39.75;;;12.00;99.90;;;12.49;78.92;99700.22;5052052;28;20037;-68
2024/03/11 02:23:11;;;;;;;51.33;40.30;;;12.00;99.90;;;12.50;78.84;99704.63;5052684;28;20045;-68
2024/03/11 02:25:39;;;;;;;54.08;39.42;;;12.10;99.90;;;12.52;78.74;99706.28;5052046;28;20072;-67
2024/03/11 02:28:08;;;;;;;52.33;39.75;;;12.10;99.90;;;12.51;78.51;99701.03;5052090;28;20037;-68
2024/03/11 02:30:37;;;;;;;53.03;39.63;;;12.10;99.90;;;12.03;78.80;99620.34;5052032;28;20037;-68
2024/03/11 02:33:06;;;;;;;54.92;40.63;;;12.10;99.90;;;12.52;79.03;99706.28;5051748;28;20045;-68
2024/03/11 02:35:35;;;;;;;55.08;40.58;;;12.10;99.90;;;12.49;78.95;99710.81;5033802;28;20083;-68
2024/03/11 02:38:04;;;;;;;57.92;39.90;;;12.10;99.90;;;12.52;78.88;99698.31;5052190;28;20053;-68
2024/03/11 02:40:38;;;;;;;53.50;39.95;;;12.10;99.90;;;12.46;78.79;99687.06;5051722;28;20525;-68
2024/03/11 02:43:07;;;;;;;52.42;40.67;;;12.10;99.90;;;12.53;78.71;99710.69;5051559;28;20091;-68
2024/03/11 02:45:35;;;;;;;51.78;40.08;;;12.10;99.90;;;12.44;79.24;99692.41;5050871;28;20037;-69
2024/03/11 02:48:05;;;;;;;51.38;39.00;;;12.10;99.90;;;12.53;78.83;99701.84;5051737;28;20047;-68
2024/03/11 02:50:34;;;;;;;54.50;40.28;;;12.10;99.90;;;12.53;78.93;99707.16;5051365;28;20131;-68
2024/03/11 02:53:04;;;;;;;51.10;39.88;;;12.10;99.90;;;12.50;79.03;99701.97;5051600;28;20115;-69
2024/03/11 02:55:34;;;;;;;;;;;12.10;99.90;;;12.44;79.23;99699.50;5033946;28;20126;-68
2024/03/11 02:58:03;;;;;;;55.45;40.08;;;12.10;99.90;;;12.44;79.29;99713.63;5051515;28;19921;-68
2024/03/11 03:00:33;;;;;;;55.40;40.33;;;12.00;99.90;;;12.42;79.48;99711.94;5051798;28;20049;-69
2024/03/11 03:03:02;;;;;;;54.90;40.90;;;12.00;99.90;;;12.44;79.33;99713.63;5033272;28;20041;-69
2024/03/11 03:05:31;;;;;;;54.95;40.53;;;12.00;99.90;;;12.46;79.29;99716.22;5051375;28;20040;-68
2024/03/11 03:07:59;;;;;;;54.63;40.65;;;12.10;99.90;;;12.48;79.10;99723.22;5051140;28;20497;-68
2024/03/11 03:10:28;;;;;;;53.33;40.13;;;12.10;99.90;;;12.50;79.02;99720.53;5051358;28;20041;-69
2024/03/11 03:12:58;;;;;;;54.47;40.65;;;12.10;99.90;;;12.43;79.09;99725.13;5051347;28;20068;-69
2024/03/11 03:15:28;;;;;;;58.85;41.00;;;12.10;99.90;;;12.45;79.23;99717.13;5051469;28;20531;-71
2024/03/11 03:17:56;;;;;;;57.28;41.60;;;12.10;99.90;;;12.45;79.35;99715.34;5033815;28;20045;-68
2024/03/11 03:20:26;;;;;;;54.13;41.72;;;12.10;99.90;;;12.42;79.46;99728.72;5051788;28;20041;-68
2024/03/11 03:22:54;;;;;;;52.92;39.83;;;12.00;99.90;;;12.42;79.51;99725.19;5050923;28;20039;-69
2024/03/11 03:25:30;;;;;;;57.30;41.40;;;12.00;99.90;;;12.42;79.37;99731.38;5032977;28;20049;-69
2024/03/11 03:28:02;;;;;;;56.22;40.63;;;12.10;99.90;;;12.42;79.50;99735.81;5050953;28;20118;-70
2024/03/11 03:30:30;;;;;;;53.83;41.90;;;12.10;99.90;;;12.40;79.35;99733.19;5051516;28;20037;-68
2024/03/11 03:32:59;;;;;;;54.88;40.80;;;12.10;99.90;;;12.43;79.45;99737.53;5051252;28;20053;-68
2024/03/11 03:35:28;;;;;;;54.47;40.95;;;12.00;99.90;;;12.24;79.65;99701.88;5050620;28;20565;-68
2024/03/11 03:37:56;;;;;;;56.47;42.67;;;12.00;99.90;;;12.20;79.82;99694.91;5050699;28;20355;-68
2024/03/11 03:40:25;;;;;;;57.00;41.05;;;11.90;99.90;;;12.38;79.78;99721.78;5050643;28;20045;-68
2024/03/11 03:42:54;;;;;;;56.55;42.22;;;12.00;99.90;;;12.41;79.45;99731.41;5051272;28;20417;-68
2024/03/11 03:45:24;;;;;;;54.17;40.80;;;12.00;99.90;;;12.37;79.52;99732.41;5052093;28;20049;-68
2024/03/11 03:47:52;;;;;;;57.00;40.70;;;12.00;99.90;;;12.33;79.65;99723.66;5051491;28;20041;-68
2024/03/11 03:50:21;;;;;;;55.97;41.20;;;12.00;99.90;;;12.34;79.76;99733.38;5033241;28;20064;-68
2024/03/11 03:52:50;;;;;;;58.33;41.22;;;12.00;99.90;;;12.40;79.84;99732.31;5052528;28;20067;-68
2024/03/11 03:55:19;;;;;;;54.42;40.65;;;12.00;99.90;;;12.38;79.74;99728.84;5034284;28;20387;-69
2024/03/11 03:57:47;;;;;;;55.70;40.92;;;12.00;99.90;;;12.45;79.53;99736.56;5052024;28;20047;-68
2024/03/11 04:00:16;;;;;;;56.25;42.22;;;12.10;99.90;;;12.38;79.63;99731.50;5052449;28;20041;-68
2024/03/11 04:02:50;;;;;;;53.25;40.13;;;12.00;99.90;;;12.39;79.91;99733.22;5052390;28;20120;-69
2024/03/11 04:05:21;;;;;;;55.30;42.75;;;12.00;99.90;;;12.40;79.73;99740.28;5052687;28;20044;-68
2024/03/11 04:07:50;;;;;;;56.97;42.42;;;12.00;99.90;;;12.41;79.67;99736.69;5052441;28;20377;-69
2024/03/11 04:10:19;;;;;;;57.30;41.35;;;12.00;99.90;;;12.22;79.90;99714.31;5052282;28;20486;-69
2024/03/11 04:12:50;;;;;;;56.10;42.45;;;12.00;99.90;;;12.35;80.23;99737.75;5052358;28;20055;-68
2024/03/11 04:15:21;;;;;;;55.50;42.17;;;12.00;99.90;;;12.34;80.37;99729.84;5052308;28;20474;-68
2024/03/11 04:17:53;;;;;;;57.70;42.00;;;11.90;99.90;;;12.31;80.29;99738.75;5052446;28;20044;-69
2024/03/11 04:20:27;;;;;;;56.88;41.58;;;11.90;99.90;;;12.36;80.29;99741.28;5034506;28;20079;-68
2024/03/11 04:22:56;;;;;;;57.67;43.40;;;11.90;99.90;;;12.36;80.44;99741.28;5051937;28;20118;-69
2024/03/11 04:25:28;;;;;;;58.58;43.45;;;11.90;99.90;;;12.33;80.37;99744.03;5051819;28;20064;-68
2024/03/11 04:27:59;;;;;;;59.97;43.90;;;11.90;99.90;;;12.31;80.68;99737.91;5052024;28;20041;-69
2024/03/11 04:30:31;;;;;;;59.58;43.15;;;11.90;99.90;;;12.32;80.63;99735.22;5051914;28;20063;-69
2024/03/11 04:33:01;;;;;;;56.28;41.85;;;11.90;99.90;;;12.31;80.75;99728.16;5051981;28;20047;-69
2024/03/11 04:35:33;;;;;;;58.13;43.08;;;11.90;99.90;;;12.31;80.75;99732.59;5034005;28;20053;-68
2024/03/11 04:38:05;;;;;;;58.42;43.42;;;11.90;99.90;;;12.26;81.03;99734.50;5052424;28;20124;-69
2024/03/11 04:40:35;;;;;;;56.30;42.15;;;11.80;99.90;;;12.24;81.08;99731.91;5052165;28;20053;-68
2024/03/11 04:43:05;;;;;;;58.58;43.63;;;11.90;99.90;;;12.23;81.12;99740.75;5052121;28;20363;-68
2024/03/11 04:45:36;;;;;;;56.80;42.00;;;11.80;99.90;;;12.28;81.10;99740.63;5052323;28;20435;-68
2024/03/11 04:48:09;;;;;;;58.88;43.38;;;11.90;99.90;;;12.14;81.08;99724.25;5034160;28;20044;-68
2024/03/11 04:50:38;;;;;;;58.75;43.15;;;11.90;99.90;;;12.29;81.02;99734.44;5051744;28;20041;-69
2024/03/11 04:53:11;;;;;;;59.47;42.67;;;11.90;99.90;;;12.25;81.21;99735.44;5051765;28;20052;-69
2024/03/11 04:55:40;;;;;;;57.22;42.20;;;11.80;99.90;;;12.25;81.06;99738.94;5034082;28;20111;-69
2024/03/11 04:58:10;;;;;;;56.85;43.05;;;11.80;99.90;;;12.25;81.21;99743.38;5051617;28;20041;-69
2024/03/11 05:00:38;;;;;;;56.93;41.70;;;11.80;99.90;;;12.25;81.08;99740.75;5033789;28;20068;-69
2024/03/11 05:03:08;;;;;;;58.88;43.78;;;11.80;99.90;;;12.12;81.25;99732.25;5051526;28;20310;-68
2024/03/11 05:05:40;;;;;;;58.55;43.08;;;11.80;99.90;;;12.25;81.10;99744.22;5051844;28;20412;-68
2024/03/11 05:08:10;;;;;;;59.13;43.45;;;11.80;99.90;;;12.28;81.08;99748.59;5053817;28;20033;-69
2024/03/11 05:10:39;;;;;;;53.58;40.85;;;11.90;99.90;;;12.30;81.28;99741.47;5055311;28;20074;-68
2024/03/11 05:13:08;;;;;;;57.95;42.03;;;11.90;99.90;;;12.17;81.48;99738.31;5055531;28;20041;-68
2024/03/11 05:15:36;;;;;;;61.22;43.80;;;11.80;99.90;;;12.21;81.37;99745.28;5037086;28;20048;-68
2024/03/11 05:18:06;;;;;;;55.13;42.45;;;11.80;99.90;;;12.19;81.43;99743.56;5055104;28;20119;-68
2024/03/11 05:20:36;;;;;;;58.00;41.85;;;11.80;99.90;;;12.24;81.45;99741.63;5037236;28;20148;-68
2024/03/11 05:23:06;;;;;;;58.78;43.47;;;11.80;99.90;;;11.60;81.31;99647.19;5055313;28;20041;-69
2024/03/11 05:25:35;;;;;;;;;;;11.80;99.90;;;11.62;81.40;99645.38;5055453;28;20136;-69
2024/03/11 05:28:04;;;;;;;59.70;43.15;;;11.80;99.90;;;12.16;81.75;99743.63;5054790;28;19921;-68
2024/03/11 05:30:32;;;;;;;60.10;43.47;;;11.80;99.90;;;12.21;81.56;99757.66;5037461;28;20144;-69
2024/03/11 05:33:01;;;;;;;57.20;42.63;;;11.80;99.90;;;12.13;81.75;99754.34;5037293;28;20056;-69
2024/03/11 05:35:30;;;;;;;58.60;43.78;;;11.80;99.90;;;12.17;81.51;99754.22;5054942;28;20127;-68
2024/03/11 05:38:01;;;;;;;58.38;43.33;;;11.80;99.90;;;12.11;81.83;99764.13;5036914;28;20123;-68
2024/03/11 05:40:29;;;;;;;;;;;11.70;99.90;;;12.02;82.00;99757.28;5037368;28;20148;-68
2024/03/11 05:42:58;;;;;;;60.58;45.17;;;11.70;99.90;;;11.99;82.49;99761.81;5054711;28;20367;-69
2024/03/11 05:45:26;;;;;;;60.35;43.53;;;11.60;99.90;;;12.04;82.53;99770.50;5054777;28;20033;-68
2024/03/11 05:48:03;;;;;;;54.88;43.80;;;11.60;99.90;;;11.36;82.38;99650.53;5054696;28;20043;-69
2024/03/11 05:50:32;;;;;;;60.72;43.33;;;11.70;99.90;;;12.08;82.11;99777.47;5055036;28;20044;-69
2024/03/11 05:53:03;;;;;;;56.25;42.67;;;11.70;99.90;;;12.04;82.43;99781.97;5036675;28;20132;-68
2024/03/11 05:55:33;;;;;;;57.95;42.83;;;11.70;99.90;;;12.02;82.54;99789.06;5054799;28;20044;-68
2024/03/11 05:58:08;;;;;;;62.63;43.97;;;11.60;99.90;;;12.03;82.76;99792.63;5054626;28;20065;-68
2024/03/11 06:00:42;;;;;;;58.53;43.28;;;11.60;99.90;;;12.03;82.90;99800.56;5054528;28;20115;-69
2024/03/11 06:03:11;;;;;;;57.72;42.75;;;11.60;99.90;;;12.08;82.79;99801.31;5036663;28;20045;-68
2024/03/11 06:05:43;;;;;;;57.25;42.80;;;11.70;99.90;;;12.06;82.75;99800.50;5036763;28;20386;-68
2024/03/11 06:08:14;;;;;;;58.40;44.17;;;11.70;99.90;;;12.06;82.83;99803.16;5054384;28;20061;-68
2024/03/11 06:10:43;;;;;;;57.50;44.03;;;11.70;99.90;;;12.08;82.86;99798.66;5054621;28;20051;-68
2024/03/11 06:13:11;;;;;;;57.67;42.92;;;11.70;99.90;;;12.01;83.35;99799.72;5054475;28;20039;-69
2024/03/11 06:15:40;;;;;;;59.67;42.92;;;11.60;99.90;;;11.95;83.50;99807.84;5054285;28;20528;-68
2024/03/11 06:18:08;;;;;;;55.78;42.90;;;11.60;99.90;;;11.98;83.72;99813.06;5035949;28;20045;-69
2024/03/11 06:20:37;;;;;;;59.70;44.22;;;11.60;99.90;;;12.03;83.50;99821.75;5053501;28;20430;-69
2024/03/11 06:23:06;;;;;;;58.65;43.85;;;11.60;99.90;;;11.92;83.57;99806.16;5036361;28;20037;-69
2024/03/11 06:25:36;;;;;;;60.90;43.25;;;11.60;99.90;;;11.94;83.96;99829.97;5054094;28;20535;-69
2024/03/11 06:28:05;;;;;;;61.03;43.80;;;11.60;99.90;;;11.88;84.34;99827.47;5053940;28;20029;-68
2024/03/11 06:30:34;;;;;;;61.78;44.05;;;11.60;99.90;;;11.83;84.53;99824.09;5054035;28;20040;-69
2024/03/11 06:33:04;;;;;;;60.47;43.55;;;11.50;99.90;;;11.90;84.65;99842.44;5036276;28;20052;-69
2024/03/11 06:35:35;;;;;;;60.53;44.33;;;11.60;99.90;;;11.90;84.52;99834.47;5054055;28;20060;-68
2024/03/11 06:38:04;;;;;;;62.30;43.90;;;11.60;99.90;;;11.91;84.61;99835.34;5053923;28;20063;-69
2024/03/11 06:40:32;;;;;;;62.50;44.50;;;11.60;99.90;;;11.92;84.73;99842.38;5053791;28;20045;-68
2024/03/11 06:43:02;;;;;;;61.88;45.10;;;11.60;99.90;;;11.86;85.05;99837.25;5054316;28;20055;-68
2024/03/11 06:45:31;;;;;;;61.00;44.53;;;11.60;99.90;;;11.92;84.86;99839.75;5053449;28;20473;-67
2024/03/11 06:48:00;;;;;;;60.45;44.35;;;11.60;99.90;;;11.89;84.88;99835.38;5035696;28;20040;-67
2024/03/11 06:50:28;;;;;;;60.00;44.38;;;11.50;99.90;;;11.95;84.92;99844.94;5035774;28;20047;-67
2024/03/11 06:52:57;;;;;;;60.60;43.95;;;11.60;99.90;;;11.95;84.82;99843.16;5053431;28;20045;-67
2024/03/11 06:55:25;;;;;;;61.55;45.28;;;11.60;99.90;;;11.95;85.12;99842.28;5035788;28;20435;-67
2024/03/11 06:57:54;;;;;;;58.25;44.15;;;11.60;99.90;;;11.94;85.25;99844.09;5053095;28;20041;-67
2024/03/11 07:00:25;;;;;;;64.35;44.75;;;11.60;99.90;;;11.95;85.27;99850.25;5053069;28;20061;-70
2024/03/11 07:02:53;;;;;;;;;;;11.60;99.90;;;12.01;85.36;99850.09;5035534;28;20151;-68
2024/03/11 07:05:26;;;;;;;64.38;45.33;;;11.70;99.90;;;11.99;85.31;99849.25;5052846;28;19917;-67
2024/03/11 07:07:56;;;;;;;63.15;46.03;;;11.60;99.90;;;11.98;85.51;99866.09;5052616;28;20029;-68
2024/03/11 07:10:25;;;;;;;64.13;46.50;;;11.60;99.90;;;11.85;85.55;99840.78;5034700;28;20073;-68
2024/03/11 07:12:54;;;;;;;62.03;45.30;;;11.70;99.90;;;11.97;85.70;99857.25;5035107;28;20044;-68
2024/03/11 07:15:25;;;;;;;65.55;45.05;;;11.60;99.90;;;12.01;85.75;99861.56;5052982;28;20044;-68
2024/03/11 07:17:53;;;;;;;60.63;45.83;;;11.70;99.90;;;11.99;85.83;99863.38;5053315;28;20044;-68
2024/03/11 07:20:24;;;;;;;67.55;47.10;;;11.60;99.90;;;11.99;86.14;99868.69;5052824;28;20052;-68
2024/03/11 07:22:53;;;;;;;64.88;47.28;;;11.60;99.90;;;12.04;86.08;99871.22;5052388;28;20040;-68
2024/03/11 07:25:22;;;;;;;62.65;46.10;;;11.70;99.90;;;12.07;86.17;99876.44;5052797;28;20079;-69
2024/03/11 07:27:52;;;;;;;62.53;45.38;;;11.70;99.90;;;12.02;86.34;99883.66;5052614;28;20036;-68
2024/03/11 07:30:23;;;;;;;62.33;46.47;;;11.70;99.90;;;12.02;86.46;99881.84;5052322;28;20482;-66
2024/03/11 07:33:06;;;;;;;63.92;46.63;;;11.60;99.90;;;12.00;86.67;99885.47;5052425;28;20029;-67
2024/03/11 07:35:41;;;;;;;60.95;45.92;;;11.60;99.90;;;12.07;86.58;99887.03;5052212;28;20057;-67
2024/03/11 07:38:11;;;;;;;61.20;45.05;;;11.70;99.90;;;12.01;86.51;99888.06;5052609;28;20458;-67
2024/03/11 07:40:40;;;;;;;65.80;47.17;;;11.70;99.90;;;11.87;86.64;99870.75;5052449;28;20053;-71
2024/03/11 07:43:13;;;;;;;63.50;46.30;;;11.70;99.90;;;12.03;86.78;99891.53;5052382;28;20033;-70
2024/03/11 07:45:43;;;;;;;62.97;46.63;;;11.70;99.90;;;11.35;86.49;99773.19;5053079;28;20037;-70
2024/03/11 07:48:13;;;;;;;64.88;46.15;;;11.70;99.90;;;12.10;86.55;99892.28;5052074;28;20048;-70
2024/03/11 07:50:42;;;;;;;67.00;47.58;;;11.70;99.90;;;11.98;86.79;99887.28;5052298;28;20041;-71
2024/03/11 07:53:12;;;;;;;62.92;45.78;;;11.70;99.90;;;12.08;86.75;99900.22;5052490;28;20041;-72
2024/03/11 07:55:42;;;;;;;61.03;45.65;;;11.70;99.90;;;11.49;86.67;99813.44;5034271;28;20049;-71
2024/03/11 07:58:11;;;;;;;62.75;46.28;;;11.70;99.90;;;12.01;87.04;99897.78;5052133;28;20053;-73
2024/03/11 08:00:42;;;;;;;62.95;46.92;;;11.70;99.90;;;12.01;87.11;99911.03;5034678;28;20052;-72
2024/03/11 08:03:14;;;;;;;62.67;46.35;;;11.70;99.90;;;12.06;87.13;99909.16;5052408;28;20045;-73
2024/03/11 08:05:43;;;;;;;59.95;45.38;;;11.70;99.90;;;12.07;87.29;99914.41;5034394;28;20068;-72
2024/03/11 08:08:15;;;;;;;63.60;46.50;;;11.70;99.90;;;12.08;87.16;99912.66;5052163;28;20076;-73
2024/03/11 08:10:44;;;;;;;63.08;45.65;;;11.70;99.90;;;12.18;87.13;99916.78;5052143;28;20513;-72
2024/03/11 08:13:14;;;;;;;66.25;47.65;;;11.80;99.90;;;11.92;87.41;99922.75;5052276;28;20053;-74
2024/03/11 08:15:44;;;;;;;64.80;47.08;;;11.70;99.90;;;11.62;88.83;99921.69;5052153;28;20140;-70
2024/03/11 08:18:14;;;;;;;68.67;46.10;;;11.40;99.90;;;11.32;89.41;99922.41;5052134;28;20048;-70
2024/03/11 08:20:43;;;;;;;66.30;47.45;;;11.20;99.90;;;10.73;92.59;99925.44;5052045;28;20047;-70
2024/03/11 08:23:13;;;;;;;68.22;47.60;;;10.60;99.90;;;10.82;93.86;99920.84;5051998;28;20036;-68
2024/03/11 08:25:44;;;;;;;66.32;48.65;;;10.40;99.90;;;10.78;93.63;99927.09;5051216;28;20037;-71
2024/03/11 08:28:14;;;;;;;71.78;49.35;;;10.50;99.90;;;10.55;95.95;99921.38;5051912;28;20049;-74
2024/03/11 08:30:45;;;;;;;71.32;49.50;;;10.20;99.90;;;10.77;95.25;99932.41;5051858;28;20047;-73
2024/03/11 08:33:16;;;;;;;68.28;49.33;;;10.40;99.90;;;10.97;95.49;99929.38;5051861;28;20084;-73
2024/03/11 08:35:45;;;;;;;69.30;49.72;;;10.50;99.90;;;11.22;94.81;99936.75;5051980;28;20049;-78
2024/03/11 08:38:14;;;;;;;70.55;51.30;;;10.80;99.90;;;11.26;93.96;99930.50;5052060;28;20148;-71
2024/03/11 08:40:43;;;;;;;70.13;49.40;;;10.90;99.90;;;10.74;94.72;99940.44;5052099;28;20083;-76
2024/03/11 08:43:11;;;;;;;68.25;48.38;;;10.60;99.90;;;10.62;96.06;99938.91;5054593;28;20045;-71
2024/03/11 08:45:41;;;;;;;72.57;50.47;;;10.30;99.90;;;10.42;97.16;99941.03;5037890;28;20049;-72
2024/03/11 08:48:13;;;;;;;72.75;50.08;;;10.10;99.90;;;10.79;97.15;99939.44;5055808;28;20045;-74
2024/03/11 08:50:44;;;;;;;71.00;51.00;;;10.40;99.90;;;11.00;96.62;99930.16;5055715;28;20053;-70
2024/03/11 08:53:12;;;;;;;70.93;50.15;;;10.60;99.90;;;11.18;95.92;99947.44;5054924;28;20128;-71
2024/03/11 08:55:41;;;;;;;73.15;51.13;;;10.80;99.90;;;11.25;95.20;99947.25;5054392;28;20378;-71
2024/03/11 08:58:12;;;;;;;73.35;51.33;;;10.90;99.90;;;11.34;94.90;99962.94;5055458;28;20144;-72
2024/03/11 09:00:40;;;;;;;69.47;49.73;;;11.00;99.90;;;11.47;94.68;99964.44;5054197;28;20622;-71
2024/03/11 09:03:15;;;;;;;70.30;50.97;;;11.10;99.90;;;11.55;94.14;99962.47;5035733;28;20628;-72
2024/03/11 09:05:50;;;;;;;68.75;48.10;;;11.20;99.90;;;11.58;93.97;99953.56;5035717;28;20148;-73
2024/03/11 09:08:21;;;;;;;70.63;50.15;;;11.30;99.90;;;11.70;93.47;99967.44;5053661;28;20420;-69
2024/03/11 09:10:50;;;;;;;65.60;47.85;;;11.40;99.90;;;11.69;93.25;99965.69;5053795;28;20033;-70
2024/03/11 09:13:19;;;;;;;64.72;47.75;;;11.40;99.90;;;11.79;93.25;99969.00;5035262;28;20551;-71
2024/03/11 09:15:49;;;;;;;68.05;48.38;;;11.40;99.90;;;11.76;93.32;99969.94;5053144;28;20119;-73
2024/03/11 09:18:19;;;;;;;70.47;49.28;;;11.50;99.90;;;11.86;93.23;99975.91;5035426;28;20049;-75
2024/03/11 09:20:50;;;;;;;68.05;49.20;;;11.60;99.90;;;11.93;93.35;99980.13;5053208;28;20052;-73
2024/03/11 09:23:19;;;;;;;69.95;50.00;;;11.60;99.90;;;12.00;93.04;99975.56;5053182;28;20060;-78
2024/03/11 09:25:48;;;;;;;68.70;49.92;;;11.60;99.90;;;12.03;92.76;99984.31;5052980;28;20079;-70
2024/03/11 09:28:17;;;;;;;65.80;48.33;;;11.60;99.90;;;12.00;92.81;99984.38;5053324;28;20071;-71
2024/03/11 09:30:46;;;;;;;65.97;48.50;;;11.60;99.90;;;12.03;92.76;99986.09;5052974;28;20041;-73
2024/03/11 09:33:14;;;;;;;65.75;48.22;;;11.70;99.90;;;12.07;92.72;100019.56;5052981;28;20041;-68
2024/03/11 09:35:43;;;;;;;64.68;48.30;;;11.70;99.90;;;12.11;92.63;99987.66;5053013;28;20045;-69
2024/03/11 09:38:13;;;;;;;66.40;48.83;;;11.70;99.90;;;12.13;92.76;99991.13;5052874;28;20057;-69
2024/03/11 09:40:42;;;;;;;65.88;49.75;;;11.80;99.90;;;12.15;92.96;99991.97;5052787;28;20044;-69
2024/03/11 09:43:17;;;;;;;66.00;49.50;;;11.80;99.90;;;12.13;93.23;99998.19;5052838;28;20465;-73
2024/03/11 09:45:47;;;;;;;68.10;50.10;;;11.70;99.90;;;12.13;93.16;99998.19;5053057;28;20104;-73
2024/03/11 09:48:17;;;;;;;68.40;49.45;;;11.70;99.90;;;12.14;93.25;99999.94;5052595;28;20039;-70
2024/03/11 09:50:47;;;;;;;64.60;48.20;;;11.80;99.90;;;12.20;93.60;100005.09;5034416;28;20029;-71
2024/03/11 09:53:19;;;;;;;69.85;49.30;;;11.80;99.90;;;12.32;93.38;100016.28;5051981;28;20067;-72
2024/03/11 09:55:48;;;;;;;69.28;49.67;;;11.90;99.90;;;12.27;93.41;100020.78;5034105;28;20044;-70
2024/03/11 09:58:18;;;;;;;67.15;48.30;;;11.90;99.90;;;12.25;93.32;100024.41;5052421;28;20148;-70
2024/03/11 10:00:49;;;;;;;69.13;50.10;;;11.90;99.90;;;12.24;93.44;100020.88;5034660;28;20044;-71
2024/03/11 10:03:24;;;;;;;69.35;48.08;;;11.80;99.90;;;12.23;93.44;100020.94;5052772;28;20667;-70
2024/03/11 10:05:57;;;;;;;66.90;48.90;;;11.80;99.90;;;12.19;93.79;100030.75;5052373;28;20060;-71
2024/03/11 10:08:31;;;;;;;67.15;48.92;;;11.80;99.90;;;12.19;93.69;100032.53;5052182;28;20044;-70
2024/03/11 10:11:15;;;;;;;68.35;47.88;;;11.80;99.90;;;12.00;94.17;100028.56;5051932;28;20037;-69
2024/03/11 10:13:45;;;;;;;66.55;48.70;;;11.60;99.90;;;12.07;94.40;100031.03;5052161;28;20040;-70
2024/03/11 10:16:17;;;;;;;65.65;48.15;;;11.60;99.90;;;12.08;94.80;100040.72;5051936;28;20041;-72
2024/03/11 10:19:02;;;;;;;64.45;47.97;;;11.60;99.90;;;12.04;94.89;100056.75;5034285;28;20045;-70